Time;durP1;ratioP1;P1;durP2;ratioP2;P2;SDS_P1;SDS_P2;PMS_P1;PMS_P2;Temp;Humidity;BMP_temperature;BMP_pressure;BME280_temperature;BME280_humidity;BME280_pressure;Samples;Min_cycle;Max_cycle;Signal;HPM_P1;HPM_P2
2022/05/26 00:01:34;;;;;;;4.30;2.75;;;;;;;10.12;72.08;94424.03;5090263;28;20465;-52
2022/05/26 00:04:01;;;;;;;6.65;3.03;;;;;;;10.10;72.32;94415.44;5090444;28;20054;-50
2022/05/26 00:06:29;;;;;;;5.50;3.00;;;;;;;10.13;72.19;94406.41;5090584;28;20052;-55
2022/05/26 00:08:57;;;;;;;5.33;2.80;;;;;;;10.11;72.60;94411.53;5089609;28;20044;-58
2022/05/26 00:11:28;;;;;;;6.05;2.83;;;;;;;9.77;73.86;94412.84;5090177;28;20078;-52
2022/05/26 00:13:57;;;;;;;4.95;3.08;;;;;;;9.59;74.56;94415.66;5089854;28;20043;-52
2022/05/26 00:16:23;;;;;;;5.15;2.80;;;;;;;9.58;74.35;94411.38;5090466;28;20070;-50
2022/05/26 00:18:50;;;;;;;5.70;2.95;;;;;;;9.63;74.83;94412.13;5089950;28;20055;-53
2022/05/26 00:21:18;;;;;;;6.33;3.13;;;;;;;9.66;74.48;94416.81;5089251;28;20079;-52
2022/05/26 00:23:45;;;;;;;4.25;2.60;;;;;;;9.64;74.16;94422.69;5083680;28;20044;-52
2022/05/26 00:26:12;;;;;;;5.43;2.70;;;;;;;9.58;74.16;94419.59;5070162;28;20036;-52
2022/05/26 00:28:39;;;;;;;4.90;2.67;;;;;;;9.56;74.54;94416.47;5069519;28;20040;-51
2022/05/26 00:31:05;;;;;;;29.08;15.73;;;;;;;9.56;74.49;94418.44;5069513;28;20040;-53
2022/05/26 00:33:32;;;;;;;6.33;3.83;;;;;;;9.54;74.54;94420.78;5068386;28;20045;-51
2022/05/26 00:36:09;;;;;;;5.47;3.17;;;;;;;9.54;74.34;94421.56;5069551;28;20401;-49
2022/05/26 00:38:36;;;;;;;4.53;3.00;;;;;;;9.49;74.60;94415.69;5069587;28;20040;-53
2022/05/26 00:41:05;;;;;;;6.88;3.22;;;;;;;9.51;74.62;94421.56;5069855;28;20051;-56
2022/05/26 00:43:33;;;;;;;5.72;3.00;;;;;;;9.51;74.55;94410.59;5069623;28;20062;-55
2022/05/26 00:46:21;;;;;;;5.10;3.20;;;;;;;9.49;74.62;94416.47;5069743;28;20047;-55
2022/05/26 00:48:53;;;;;;;6.50;3.17;;;;;;;9.50;74.81;94414.53;5069150;28;20047;-54
2022/05/26 00:51:25;;;;;;;4.90;2.67;;;;;;;9.52;74.51;94406.69;5069830;28;20071;-49
2022/05/26 00:53:55;;;;;;;5.15;3.05;;;;;;;9.50;74.59;94407.09;5074275;28;20048;-50
2022/05/26 00:56:33;;;;;;;6.50;2.92;;;;;;;9.47;74.28;94407.09;5089849;28;20048;-50
2022/05/26 00:59:07;;;;;;;4.73;3.10;;;;;;;9.23;75.56;94411.47;5088838;28;20803;-54
2022/05/26 01:01:35;;;;;;;5.45;2.95;;;;;;;9.13;76.02;94410.31;5089802;28;20040;-52
2022/05/26 01:04:10;;;;;;;6.57;3.30;;;;;;;9.06;76.63;94408.38;5089693;28;20400;-52
2022/05/26 01:07:01;;;;;;;5.20;3.33;;;;;;;9.03;76.33;94414.63;5089325;28;20070;-58
2022/05/26 01:09:27;;;;;;;6.57;3.42;;;;;;;8.78;77.30;94423.63;5089600;28;20048;-50
2022/05/26 01:11:54;;;;;;;5.97;3.20;;;;;;;8.85;77.69;94425.56;5089607;28;20113;-52
2022/05/26 01:14:29;;;;;;;5.97;3.10;;;;;;;8.92;76.73;94419.34;5089454;28;20074;-54
2022/05/26 01:17:14;;;;;;;5.15;3.35;;;;;;;8.98;76.79;94418.53;5089489;28;20423;-50
2022/05/26 01:20:03;;;;;;;7.00;3.15;;;;;;;9.03;76.61;94414.63;5088888;28;20070;-48
2022/05/26 01:22:59;;;;;;;5.35;3.00;;;;;;;9.01;76.21;94416.97;5089511;28;20044;-55
2022/05/26 01:25:31;;;;;;;5.27;2.97;;;;;;;8.97;76.56;94419.72;5068989;28;20078;-52
2022/05/26 01:28:28;;;;;;;5.72;2.72;;;;;;;8.95;77.02;94411.13;5068419;28;20105;-55
2022/05/26 01:31:11;;;;;;;6.55;3.40;;;;;;;8.61;78.68;94418.94;5056953;28;20066;-50
2022/05/26 01:33:57;;;;;;;5.35;3.20;;;;;;;8.74;78.40;94422.84;5072111;28;20127;-50
2022/05/26 01:36:28;;;;;;;69.60;38.50;;;;;;;8.68;78.13;94426.38;5072894;28;20036;-58
2022/05/26 01:39:17;;;;;;;5.90;3.80;;;;;;;8.54;78.88;94427.16;5073074;28;20041;-56
2022/05/26 01:42:06;;;;;;;6.30;3.05;;;;;;;8.65;79.66;94430.66;5072531;28;20045;-50
2022/05/26 01:44:45;;;;;;;6.13;4.10;;;;;;;8.80;78.53;94429.50;5072298;28;20044;-49
2022/05/26 01:47:26;;;;;;;6.85;3.50;;;;;;;8.97;78.00;94429.88;5072731;28;20045;-51
2022/05/26 01:50:11;;;;;;;6.78;3.10;;;;;;;8.97;77.86;94425.19;5072337;28;20091;-57
2022/05/26 01:52:58;;;;;;;4.73;2.93;;;;;;;9.13;77.31;94430.25;5074138;28;20113;-58
2022/05/26 01:55:35;;;;;;;4.53;3.25;;;;;;;9.22;77.35;94421.63;5072776;28;20048;-56
2022/05/26 01:58:18;;;;;;;5.43;3.20;;;;;;;9.24;77.70;94419.28;5084505;28;20096;-61
2022/05/26 02:00:45;;;;;;;6.18;3.10;;;;;;;9.35;76.48;94425.50;5092478;28;20116;-58
2022/05/26 02:03:18;;;;;;;7.15;2.95;;;;;;;9.39;76.45;94425.50;5092771;28;20048;-53
2022/05/26 02:05:54;;;;;;;4.73;3.07;;;;;;;9.19;77.09;94423.22;5092384;28;20039;-50
2022/05/26 02:08:31;;;;;;;4.60;3.17;;;;;;;8.94;78.67;94423.22;5092519;28;20044;-56
2022/05/26 02:11:07;;;;;;;5.22;3.42;;;;;;;8.78;79.51;94426.38;5091873;28;21829;-52
2022/05/26 02:13:49;;;;;;;5.38;3.17;;;;;;;8.77;78.95;94434.97;5092314;28;20180;-54
2022/05/26 02:16:49;;;;;;;5.20;3.38;;;;;;;8.90;78.84;94435.38;5092555;28;20077;-48
2022/05/26 02:19:34;;;;;;;6.27;3.30;;;;;;;9.02;77.98;94424.00;5091287;28;20593;-55
2022/05/26 02:22:05;;;;;;;5.35;3.30;;;;;;;9.14;77.87;94433.78;5091470;28;21690;-49
2022/05/26 02:24:44;;;;;;;4.72;3.22;;;;;;;9.20;77.54;94426.72;5074309;28;20490;-50
2022/05/26 02:27:11;;;;;;;5.30;2.80;;;;;;;9.23;77.53;94425.16;5072206;28;20043;-55
2022/05/26 02:29:53;;;;;;;5.30;3.30;;;;;;;9.24;76.81;94424.75;5070605;28;20508;-52
2022/05/26 02:32:26;;;;;;;6.07;3.23;;;;;;;9.14;77.34;94420.09;5072020;28;20045;-51
2022/05/26 02:34:56;;;;;;;6.70;3.47;;;;;;;8.85;78.02;94428.31;5071630;28;20444;-55
2022/05/26 02:37:24;;;;;;;6.05;3.45;;;;;;;8.84;78.98;94428.72;5071786;28;20041;-52
2022/05/26 02:39:52;;;;;;;6.65;3.20;;;;;;;8.85;78.33;94428.31;5071568;28;20089;-51
2022/05/26 02:42:21;;;;;;;7.82;5.10;;;;;;;8.86;78.20;94427.16;5071947;28;20049;-53
2022/05/26 02:44:48;;;;;;;8.80;4.30;;;;;;;8.85;78.63;94425.56;5071212;28;20052;-52
2022/05/26 02:47:31;;;;;;;6.07;3.38;;;;;;;8.83;78.56;94427.91;5087222;28;20047;-54
2022/05/26 02:50:19;;;;;;;5.18;3.10;;;;;;;8.77;78.82;94424.00;5070664;28;20333;-51
2022/05/26 02:53:10;;;;;;;6.28;3.50;;;;;;;8.69;79.87;94431.47;5074875;28;20042;-48
2022/05/26 02:55:49;;;;;;;5.65;3.75;;;;;;;8.62;80.01;94434.19;5091603;28;20047;-52
2022/05/26 02:58:32;;;;;;;5.50;3.50;;;;;;;8.53;80.36;94431.84;5091803;28;20081;-51
2022/05/26 03:01:24;;;;;;;7.05;3.40;;;;;;;8.58;80.49;94430.66;5091005;28;20616;-49
2022/05/26 03:04:03;;;;;;;5.10;3.30;;;;;;;8.59;80.21;94432.22;5090948;28;20075;-51
2022/05/26 03:06:40;;;;;;;5.15;3.53;;;;;;;8.56;79.94;94435.75;5091353;28;20036;-53
2022/05/26 03:09:07;;;;;;;6.43;3.53;;;;;;;8.59;80.10;94437.69;5090426;28;20044;-60
2022/05/26 03:11:46;;;;;;;5.00;3.20;;;;;;;8.65;80.36;94440.81;5091133;28;20040;-51
2022/05/26 03:14:15;;;;;;;6.15;3.35;;;;;;;8.71;79.77;94447.47;5091068;28;20067;-54
2022/05/26 03:16:42;;;;;;;5.60;3.60;;;;;;;8.68;80.30;94435.38;5090751;28;20050;-56
2022/05/26 03:19:10;;;;;;;8.05;3.40;;;;;;;8.75;80.15;94438.13;5091383;28;20479;-51
2022/05/26 03:21:38;;;;;;;5.15;3.55;;;;;;;8.52;80.49;94437.69;5088656;28;20415;-56
2022/05/26 03:24:06;;;;;;;5.80;3.30;;;;;;;8.60;80.69;94444.75;5082564;28;20094;-49
2022/05/26 03:26:33;;;;;;;5.40;2.95;;;;;;;8.52;81.00;94441.22;5070520;28;20066;-52
2022/05/26 03:28:59;;;;;;;34.42;19.90;;;;;;;8.56;80.66;94444.72;5070621;28;20408;-49
2022/05/26 03:31:26;;;;;;;12.00;7.47;;;;;;;8.62;80.63;94447.09;5070661;28;20040;-52
2022/05/26 03:42:26;;;;;;;7.80;3.70;;;;;;;8.83;79.93;94455.28;5065595;28;20063;-47
2022/05/26 03:44:54;;;;;;;4.60;3.08;;;;;;;8.92;79.60;94454.91;5070216;28;20048;-49
2022/05/26 03:47:21;;;;;;;5.25;3.20;;;;;;;8.82;79.22;94458.44;5070230;28;20400;-50
2022/05/26 03:49:47;;;;;;;5.70;3.20;;;;;;;8.66;80.47;94461.56;5069714;28;20114;-55
2022/05/26 03:52:15;;;;;;;6.18;3.20;;;;;;;8.71;80.07;94467.44;5070627;28;20044;-54
2022/05/26 03:54:43;;;;;;;4.88;2.90;;;;;;;8.71;80.58;94472.91;5080995;28;20048;-49
2022/05/26 03:57:10;;;;;;;5.53;3.05;;;;;;;8.62;79.56;94467.03;5090719;28;20050;-52
2022/05/26 03:59:41;;;;;;;5.70;3.45;;;;;;;8.53;80.82;94475.63;5090269;28;20044;-48
2022/05/26 04:02:08;;;;;;;5.20;2.93;;;;;;;8.75;80.24;94475.63;5090745;28;20412;-51
2022/05/26 04:04:34;;;;;;;5.75;3.08;;;;;;;8.88;79.37;94471.34;5089995;28;20048;-52
2022/05/26 04:07:01;;;;;;;4.80;3.03;;;;;;;9.03;78.85;94471.31;5090717;28;20048;-49
2022/05/26 04:09:28;;;;;;;4.70;2.97;;;;;;;9.17;78.76;94482.28;5090226;28;20122;-50
2022/05/26 04:11:55;;;;;;;5.50;2.80;;;;;;;9.28;77.16;94480.31;5090286;28;20036;-51
2022/05/26 04:14:21;;;;;;;5.90;2.90;;;;;;;9.03;77.87;94488.53;5090346;28;20043;-49
2022/05/26 04:16:48;;;;;;;4.68;3.22;;;;;;;8.89;79.09;94488.53;5089893;28;20044;-54
2022/05/26 04:19:15;;;;;;;5.22;3.00;;;;;;;8.75;79.93;94500.25;5088899;28;20040;-48
2022/05/26 04:22:14;;;;;;;4.88;2.75;;;;;;;8.99;79.22;94504.97;5071264;28;20070;-49
2022/05/26 04:24:28;;;;;;;6.25;2.90;;;;;;;9.12;78.75;94496.38;5077913;28;20111;-48
2022/05/26 04:26:55;;;;;;;5.10;3.00;;;;;;;9.19;78.82;94499.91;5069619;28;20033;-50
2022/05/26 04:29:23;;;;;;;5.25;3.20;;;;;;;9.37;77.89;94496.34;5069720;28;20423;-51
2022/05/26 04:31:51;;;;;;;4.95;2.80;;;;;;;9.54;77.35;94497.50;5069568;28;20082;-48
2022/05/26 04:34:18;;;;;;;4.35;2.80;;;;;;;9.64;77.01;94495.88;5069899;28;20053;-48
2022/05/26 04:36:46;;;;;;;5.75;2.70;;;;;;;9.79;76.55;94505.66;5069589;28;20126;-52
2022/05/26 04:39:14;;;;;;;6.90;3.00;;;;;;;9.87;75.87;94509.94;5069594;28;20052;-60
2022/05/26 04:41:42;;;;;;;4.60;2.75;;;;;;;9.99;75.50;94506.75;5069388;28;20049;-48
2022/05/26 04:44:14;;;;;;;4.93;2.80;;;;;;;10.09;75.33;94507.13;5070067;28;20497;-50
2022/05/26 04:46:41;;;;;;;5.15;2.67;;;;;;;9.95;75.54;94513.44;5068102;28;20044;-56
2022/05/26 04:49:11;;;;;;;3.80;2.70;;;;;;;10.08;75.44;94508.28;5069991;28;20037;-51
2022/05/26 04:51:39;;;;;;;3.63;2.47;;;;;;;10.09;74.99;94513.38;5069600;28;20041;-52
2022/05/26 04:54:07;;;;;;;4.07;2.63;;;;;;;10.27;74.55;94518.78;5076410;28;20438;-56
2022/05/26 04:56:35;;;;;;;4.20;2.50;;;;;;;10.41;74.00;94522.69;5089158;28;20058;-56
2022/05/26 04:59:02;;;;;;;4.70;2.47;;;;;;;10.73;73.20;94519.78;5089864;28;20593;-54
2022/05/26 05:01:29;;;;;;;5.95;2.42;;;;;;;10.82;72.25;94513.81;5077078;28;20510;-54
2022/05/26 05:03:56;;;;;;;4.80;2.40;;;;;;;10.47;73.33;94519.13;5069288;28;20372;-49
2022/05/26 05:06:22;;;;;;;3.78;2.53;;;;;;;10.65;73.59;94512.75;5071456;28;20045;-51
2022/05/26 05:08:49;;;;;;;3.92;2.38;;;;;;;10.95;72.18;94521.19;5073360;28;20048;-57
2022/05/26 05:11:17;;;;;;;5.85;2.83;;;;;;;10.92;72.61;94519.22;5074008;28;20530;-50
2022/05/26 05:13:44;;;;;;;5.28;2.60;;;;;;;11.08;71.81;94524.22;5073586;28;20066;-54
2022/05/26 05:16:27;;;;;;;4.23;2.60;;;;;;;10.66;73.24;94520.56;5073070;28;20272;-53
2022/05/26 05:18:55;;;;;;;5.75;2.63;;;;;;;10.96;72.71;94521.97;5073073;28;20044;-58
2022/05/26 05:21:30;;;;;;;7.80;3.38;;;;;;;10.75;73.79;94523.66;5072920;28;20060;-50
2022/05/26 05:24:14;;;;;;;8.23;4.18;;;;;;;11.27;72.62;94522.91;5072421;28;20310;-50
2022/05/26 05:26:45;;;;;;;8.00;4.57;;;;;;;11.96;69.85;94532.09;5072781;28;20055;-48
2022/05/26 05:29:15;;;;;;;6.40;3.77;;;;;;;14.44;61.89;94522.03;5073594;28;20059;-56
2022/05/26 05:31:47;;;;;;;6.10;2.83;;;;;;;16.93;53.34;94527.31;5072648;28;20051;-56
2022/05/26 05:34:26;;;;;;;5.15;2.47;;;;;;;16.81;52.57;94527.28;5073181;28;20045;-48
2022/05/26 05:36:53;;;;;;;5.32;2.22;;;;;;;15.41;55.58;94533.75;5072803;28;20047;-48
2022/05/26 05:39:19;;;;;;;3.63;2.45;;;;;;;14.78;58.11;94532.78;5072979;28;20047;-48
2022/05/26 05:41:46;;;;;;;3.40;2.10;;;;;;;14.62;58.20;94533.50;5072397;28;20048;-54
2022/05/26 05:44:13;;;;;;;3.60;2.30;;;;;;;14.04;59.67;94542.09;5073093;28;20075;-52
2022/05/26 05:46:54;;;;;;;4.88;2.45;;;;;;;14.23;59.05;94532.31;5087686;28;20042;-49
2022/05/26 05:49:24;;;;;;;4.70;2.58;;;;;;;14.11;60.98;94541.22;5072640;28;20048;-51
2022/05/26 05:51:51;;;;;;;4.50;2.20;;;;;;;16.63;53.28;94538.91;5071896;28;20421;-56
2022/05/26 05:54:19;;;;;;;4.37;2.27;;;;;;;16.13;54.90;94538.28;5085818;28;20469;-50
2022/05/26 05:56:47;;;;;;;5.07;2.40;;;;;;;15.74;55.47;94534.53;5092472;28;20515;-53
2022/05/26 05:59:14;;;;;;;4.72;2.40;;;;;;;15.77;56.12;94528.94;5092882;28;20554;-51
2022/05/26 06:01:41;;;;;;;3.55;2.35;;;;;;;16.54;53.54;94537.53;5092327;28;20523;-51
2022/05/26 06:04:08;;;;;;;3.05;2.10;;;;;;;18.18;49.81;94541.19;5092834;28;20046;-54
2022/05/26 06:06:37;;;;;;;3.53;1.90;;;;;;;16.46;52.97;94543.72;5092225;28;20040;-49
2022/05/26 06:09:04;;;;;;;4.68;2.50;;;;;;;16.57;53.26;94533.13;5092568;28;20404;-47
2022/05/26 06:11:31;;;;;;;4.18;2.10;;;;;;;19.25;47.06;94532.97;5091601;28;20511;-50
2022/05/26 06:13:58;;;;;;;3.33;2.08;;;;;;;19.09;46.31;94537.50;5092526;28;20066;-51
2022/05/26 06:16:25;;;;;;;3.90;2.30;;;;;;;19.67;45.27;94527.69;5092349;28;20390;-56
2022/05/26 06:18:52;;;;;;;3.10;2.17;;;;;;;21.58;42.07;94536.13;5091266;28;20446;-54
2022/05/26 06:21:19;;;;;;;3.63;2.30;;;;;;;23.28;38.32;94530.63;5090694;28;20070;-52
2022/05/26 06:23:46;;;;;;;3.20;1.98;;;;;;;26.07;33.49;94534.03;5089710;28;20415;-57
2022/05/26 06:26:13;;;;;;;5.05;2.03;;;;;;;27.34;31.29;94532.69;5071969;28;20047;-52
2022/05/26 06:31:24;;;;;;;4.07;1.73;;;;;;;23.07;36.81;94543.75;5070691;28;20044;-51
2022/05/26 06:39:21;;;;;;;3.95;1.90;;;;;;;22.32;40.18;94553.25;5071714;28;20425;-50
2022/05/26 06:42:07;;;;;;;3.10;1.80;;;;;;;23.61;37.74;94540.06;5071461;28;20197;-54
2022/05/26 06:44:42;;;;;;;2.80;1.40;;;;;;;23.62;35.38;94547.94;5070938;28;20041;-54
2022/05/26 06:47:18;;;;;;;3.30;1.30;;;;;;;22.68;37.94;94551.44;5071775;28;20049;-54
2022/05/26 06:49:46;;;;;;;2.55;1.10;;;;;;;23.19;36.08;94552.34;5070946;28;20406;-55
2022/05/26 06:52:15;;;;;;;3.13;1.27;;;;;;;24.89;33.53;94556.28;5071518;28;20430;-51
2022/05/26 06:54:44;;;;;;;2.55;1.10;;;;;;;23.92;34.86;94548.72;5051146;28;20432;-52
2022/05/26 06:57:13;;;;;;;3.00;1.20;;;;;;;24.53;32.50;94552.84;5051565;28;20414;-53
2022/05/26 06:59:40;;;;;;;2.85;1.02;;;;;;;25.61;31.91;94547.00;5050560;28;20037;-53
2022/05/26 07:02:09;;;;;;;3.08;1.00;;;;;;;25.29;31.30;94549.81;5051578;28;20041;-49
2022/05/26 07:04:37;;;;;;;3.58;1.50;;;;;;;26.59;29.07;94549.91;5050637;28;20048;-52
2022/05/26 07:07:04;;;;;;;2.20;1.00;;;;;;;24.54;31.77;94551.56;5051446;28;20098;-49
2022/05/26 07:09:31;;;;;;;3.30;2.47;;;;;;;25.60;30.70;94551.09;5050737;28;20044;-49
2022/05/26 07:11:58;;;;;;;3.28;1.90;;;;;;;28.63;26.34;94548.69;5066301;28;20119;-51
2022/05/26 07:14:25;;;;;;;4.00;1.45;;;;;;;26.19;29.36;94557.38;5050826;28;20052;-54
2022/05/26 07:16:53;;;;;;;2.67;1.20;;;;;;;26.02;28.75;94555.25;5065859;28;20114;-56
2022/05/26 07:19:19;;;;;;;3.38;1.10;;;;;;;24.43;31.03;94562.63;5051004;28;20053;-54
2022/05/26 07:21:48;;;;;;;1.90;0.90;;;;;;;23.11;33.51;94561.13;5050062;28;20094;-53
2022/05/26 07:24:18;;;;;;;3.00;1.00;;;;;;;22.95;33.72;94561.56;5060968;28;20480;-50
2022/05/26 07:26:46;;;;;;;3.03;0.90;;;;;;;25.46;29.12;94554.81;5068969;28;20036;-51
2022/05/26 07:29:15;;;;;;;3.53;0.70;;;;;;;25.73;28.50;94556.28;5070517;28;20063;-52
2022/05/26 07:31:43;;;;;;;2.40;0.80;;;;;;;25.42;28.46;94555.03;5068107;28;20052;-55
2022/05/26 07:34:16;;;;;;;2.87;1.13;;;;;;;24.31;30.64;94561.72;5070596;28;20070;-48
2022/05/26 07:42:17;;;;;;;3.63;0.82;;;;;;;21.31;36.53;94565.69;5070033;28;22891;-47
2022/05/26 07:44:49;;;;;;;2.25;0.80;;;;;;;21.66;35.17;94571.59;5069998;28;20101;-47
2022/05/26 07:47:16;;;;;;;2.00;0.73;;;;;;;20.80;37.28;94566.38;5070480;28;20051;-50
2022/05/26 07:49:47;;;;;;;2.83;1.05;;;;;;;21.71;36.39;94565.38;5069724;28;20101;-53
2022/05/26 07:52:18;;;;;;;4.70;0.90;;;;;;;23.07;33.89;94566.16;5070445;28;20042;-52
2022/05/26 07:54:46;;;;;;;2.90;0.80;;;;;;;23.32;33.36;94561.22;5049547;28;20045;-53
2022/05/26 07:57:26;;;;;;;2.50;0.90;;;;;;;22.32;34.20;94575.63;5050150;28;20049;-52
2022/05/26 07:59:54;;;;;;;2.10;0.90;;;;;;;22.91;33.49;94570.16;5049862;28;20349;-56
2022/05/26 08:02:23;;;;;;;2.83;0.93;;;;;;;22.56;34.12;94569.22;5050321;28;20049;-49
2022/05/26 08:04:50;;;;;;;3.00;1.30;;;;;;;22.62;34.13;94572.94;5049863;28;20041;-49
2022/05/26 08:07:17;;;;;;;2.60;0.80;;;;;;;23.04;33.33;94575.53;5050448;28;20071;-50
2022/05/26 08:09:43;;;;;;;2.70;1.00;;;;;;;23.20;33.29;94573.50;5049512;28;20482;-50
2022/05/26 08:12:12;;;;;;;2.67;0.80;;;;;;;24.12;30.89;94570.38;5049997;28;20067;-50
2022/05/26 08:14:43;;;;;;;1.95;0.80;;;;;;;24.61;30.63;94582.00;5049400;28;20466;-48
2022/05/26 08:17:15;;;;;;;3.30;0.75;;;;;;;23.66;32.66;94579.38;5048872;28;20385;-48
2022/05/26 08:19:43;;;;;;;2.55;1.30;;;;;;;25.55;29.60;94576.34;5049226;28;20044;-52
2022/05/26 08:22:10;;;;;;;3.63;0.90;;;;;;;26.69;26.94;94573.75;5049846;28;20037;-51
2022/05/26 08:24:36;;;;;;;2.47;0.73;;;;;;;26.45;27.81;94577.72;5047981;28;20045;-47
2022/05/26 08:27:03;;;;;;;2.65;0.80;;;;;;;25.44;28.16;94566.53;5049923;28;20378;-52
2022/05/26 08:29:30;;;;;;;2.13;0.77;;;;;;;23.18;32.16;94582.41;5049751;28;20041;-48
2022/05/26 08:31:57;;;;;;;2.10;0.70;;;;;;;23.32;32.61;94578.81;5062443;28;20324;-46
2022/05/26 08:34:24;;;;;;;2.22;0.70;;;;;;;25.26;29.38;94578.91;5070006;28;20048;-52
2022/05/26 08:36:50;;;;;;;3.87;0.87;;;;;;;25.79;29.04;94576.00;5069215;28;20054;-51
2022/05/26 08:39:17;;;;;;;3.28;0.88;;;;;;;26.24;28.27;94577.13;5069875;28;20040;-54
2022/05/26 08:41:48;;;;;;;3.00;0.70;;;;;;;25.31;30.26;94578.19;5068530;28;20075;-49
2022/05/26 08:44:24;;;;;;;3.47;1.30;;;;;;;25.58;29.34;94573.31;5069926;28;20046;-56
2022/05/26 08:47:04;;;;;;;2.13;0.80;;;;;;;25.43;29.43;94579.03;5069019;28;20837;-54
2022/05/26 08:49:38;;;;;;;3.20;0.70;;;;;;;26.33;28.17;94578.19;5069454;28;20413;-55
2022/05/26 08:52:13;;;;;;;2.50;0.63;;;;;;;25.73;28.46;94580.81;5069100;28;20067;-50
2022/05/26 08:54:40;;;;;;;1.95;0.68;;;;;;;25.36;29.49;94584.34;5077141;28;20044;-50
2022/05/26 08:57:12;;;;;;;1.90;0.60;;;;;;;25.33;29.77;94586.09;5084970;28;20390;-48
2022/05/26 08:59:44;;;;;;;2.42;0.70;;;;;;;24.64;30.03;94586.63;5067999;28;20051;-50
2022/05/26 09:02:20;;;;;;;1.87;0.60;;;;;;;23.90;30.45;94592.47;5069401;28;20053;-51
2022/05/26 09:04:47;;;;;;;3.00;0.70;;;;;;;24.16;30.59;94589.78;5068752;28;20040;-53
2022/05/26 09:13:05;;;;;;;2.85;0.82;;;;;;;23.58;31.29;94597.03;5072922;28;20150;-49
2022/05/26 09:15:34;;;;;;;2.63;0.70;;;;;;;22.51;30.94;94593.03;5080478;28;20483;-54
2022/05/26 09:18:15;;;;;;;2.00;0.90;;;;;;;22.62;32.08;94592.50;5069224;28;20040;-50
2022/05/26 09:20:45;;;;;;;2.92;0.98;;;;;;;22.76;32.00;94596.56;5067924;28;20382;-55
2022/05/26 09:23:12;;;;;;;2.13;0.90;;;;;;;22.83;31.62;94596.22;5068740;28;20078;-50
2022/05/26 09:25:45;;;;;;;2.75;0.80;;;;;;;23.82;30.66;94582.94;5068302;28;20055;-51
2022/05/26 09:28:24;;;;;;;1.90;0.80;;;;;;;23.55;31.11;94593.19;5068575;28;20048;-49
2022/05/26 09:30:52;;;;;;;1.80;0.70;;;;;;;24.05;30.32;94590.41;5068447;28;20051;-51
2022/05/26 09:33:27;;;;;;;1.83;0.70;;;;;;;24.69;29.04;94588.75;5068775;28;20289;-56
2022/05/26 09:36:13;;;;;;;2.17;0.80;;;;;;;24.24;29.46;94587.34;5068350;28;20047;-54
2022/05/26 09:38:40;;;;;;;2.20;0.80;;;;;;;24.83;28.26;94580.72;5068707;28;20043;-56
2022/05/26 09:41:07;;;;;;;3.50;1.23;;;;;;;24.55;29.23;94588.78;5068885;28;20068;-48
2022/05/26 09:43:45;;;;;;;3.45;0.70;;;;;;;24.46;29.46;94598.88;5066961;28;20431;-47
2022/05/26 09:46:15;;;;;;;2.88;0.80;;;;;;;25.22;28.23;94595.19;5067629;28;20055;-51
2022/05/26 09:48:45;;;;;;;4.05;0.90;;;;;;;25.05;28.24;94600.63;5068437;28;20533;-50
2022/05/26 09:51:25;;;;;;;2.70;0.90;;;;;;;24.78;28.26;94592.66;5068797;28;20057;-55
2022/05/26 09:53:54;;;;;;;1.90;0.80;;;;;;;24.76;28.49;94595.19;5079407;28;20394;-51
2022/05/26 09:56:38;;;;;;;2.10;0.90;;;;;;;27.86;24.33;94603.44;5092563;28;20397;-51
2022/05/26 09:59:25;;;;;;;2.20;0.80;;;;;;;27.82;24.80;94597.28;5091643;28;20869;-56
2022/05/26 10:02:04;;;;;;;2.40;0.90;;;;;;;28.40;23.73;94585.44;5092105;28;20149;-52
2022/05/26 10:04:35;;;;;;;1.90;0.70;;;;;;;28.44;24.50;94600.06;5091955;28;20040;-54
2022/05/26 10:07:08;;;;;;;2.00;0.80;;;;;;;29.37;22.46;94597.91;5092416;28;20036;-55
2022/05/26 10:09:57;;;;;;;1.92;0.60;;;;;;;27.73;24.19;94608.84;5091987;28;20040;-53
2022/05/26 10:12:47;;;;;;;2.45;0.70;;;;;;;26.85;24.99;94600.44;5092436;28;20432;-51
2022/05/26 10:15:34;;;;;;;2.00;0.70;;;;;;;26.14;25.89;94601.09;5091188;28;20131;-53
2022/05/26 10:18:18;;;;;;;1.60;0.57;;;;;;;25.34;27.49;94607.31;5091408;28;20105;-51
2022/05/26 10:21:14;;;;;;;2.00;0.80;;;;;;;22.80;30.62;94611.16;5091397;28;20044;-51
2022/05/26 10:23:41;;;;;;;2.50;0.90;;;;;;;24.68;28.35;94601.22;5089884;28;20032;-51
2022/05/26 10:26:29;;;;;;;1.83;0.70;;;;;;;27.55;24.60;94603.69;5085265;28;20046;-56
2022/05/26 10:29:28;;;;;;;1.88;0.70;;;;;;;29.31;22.50;94602.06;5091264;28;20061;-53
2022/05/26 10:32:24;;;;;;;3.17;0.75;;;;;;;29.52;22.76;94588.28;5062718;28;20044;-51
2022/05/26 10:34:51;;;;;;;1.73;0.60;;;;;;;30.15;22.13;94583.69;5069866;28;20051;-55
2022/05/26 10:37:27;;;;;;;2.20;0.68;;;;;;;27.93;23.55;94596.56;5071571;28;20048;-52
2022/05/26 10:40:17;;;;;;;3.08;0.80;;;;;;;27.39;24.72;94593.97;5070979;28;20048;-51
2022/05/26 10:42:54;;;;;;;3.03;0.70;;;;;;;28.09;24.66;94580.88;5071108;28;20056;-53
2022/05/26 10:45:37;;;;;;;3.40;0.60;;;;;;;27.05;25.59;94588.97;5071482;28;20044;-51
2022/05/26 10:48:07;;;;;;;2.83;0.60;;;;;;;26.70;25.84;94584.53;5070302;28;20246;-48
2022/05/26 10:51:01;;;;;;;2.45;0.50;;;;;;;27.09;25.67;94588.75;5070786;28;20392;-62
2022/05/26 10:53:44;;;;;;;2.22;0.52;;;;;;;27.33;25.55;94593.94;5071200;28;20509;-49
2022/05/26 10:56:28;;;;;;;2.83;0.70;;;;;;;27.01;25.23;94585.66;5061995;28;20633;-53
2022/05/26 10:59:13;;;;;;;2.95;0.80;;;;;;;27.07;25.33;94585.66;5061846;28;20787;-51
2022/05/26 11:01:46;;;;;;;2.20;0.70;;;;;;;26.97;25.82;94582.31;5062333;28;20378;-52
2022/05/26 11:04:23;;;;;;;3.13;0.70;;;;;;;25.77;26.65;94587.75;5062793;28;20481;-51
2022/05/26 11:06:54;;;;;;;1.70;0.68;;;;;;;26.04;26.71;94592.06;5062275;28;20169;-54
2022/05/26 11:09:38;;;;;;;2.78;0.80;;;;;;;25.57;28.49;94590.66;5062461;28;20385;-56
2022/05/26 11:12:11;;;;;;;2.88;0.70;;;;;;;25.33;28.46;94590.94;5054562;28;20174;-57
2022/05/26 11:17:44;;;;;;;1.90;0.60;;;;;;;25.33;27.44;94582.53;5061828;28;20109;-58
2022/05/26 11:20:42;;;;;;;3.72;0.93;;;;;;;24.37;29.53;94584.19;5064332;28;20052;-56
2022/05/26 11:23:10;;;;;;;2.67;0.80;;;;;;;24.49;29.59;94585.91;5057245;28;20963;-52
2022/05/26 11:25:54;;;;;;;1.98;0.90;;;;;;;24.68;29.55;94583.59;5073409;28;20045;-51
2022/05/26 11:28:32;;;;;;;3.73;0.70;;;;;;;26.06;27.38;94586.72;5091114;28;20046;-55
2022/05/26 11:36:52;;;;;;;2.30;0.70;;;;;;;25.19;28.82;94578.53;5090320;28;20047;-55
2022/05/26 11:39:28;;;;;;;2.60;0.70;;;;;;;25.29;29.39;94580.72;5074288;28;20051;-52
2022/05/26 11:42:08;;;;;;;2.60;0.67;;;;;;;25.28;28.14;94581.97;5090031;28;20592;-56
2022/05/26 11:44:44;;;;;;;1.98;0.70;;;;;;;24.93;28.32;94579.28;5090392;28;20489;-50
2022/05/26 11:47:21;;;;;;;1.85;0.60;;;;;;;23.89;29.73;94580.50;5090313;28;20052;-52
2022/05/26 11:49:47;;;;;;;3.33;0.90;;;;;;;24.59;29.57;94576.13;5071675;28;20089;-53
2022/05/26 11:52:23;;;;;;;2.58;0.80;;;;;;;23.81;30.67;94578.59;5090368;28;20040;-50
2022/05/26 11:54:54;;;;;;;3.87;0.73;;;;;;;24.26;29.92;94576.41;5049440;28;20045;-54
2022/05/26 11:57:44;;;;;;;3.03;0.85;;;;;;;23.76;30.10;94580.00;5050252;28;20048;-53
2022/05/26 12:00:40;;;;;;;1.98;0.80;;;;;;;22.11;31.67;94572.63;5058483;28;20053;-53
2022/05/26 12:03:22;;;;;;;2.30;0.70;;;;;;;23.71;30.54;94572.31;5069325;28;20753;-51
2022/05/26 12:06:12;;;;;;;2.35;0.80;;;;;;;24.71;29.87;94579.84;5067983;28;20071;-49
2022/05/26 12:08:58;;;;;;;2.47;0.70;;;;;;;24.43;30.24;94579.47;5067749;28;20115;-54
2022/05/26 12:11:58;;;;;;;2.28;0.93;;;;;;;23.82;31.11;94578.09;5070235;28;20045;-48
2022/05/26 12:14:31;;;;;;;2.03;0.80;;;;;;;24.06;30.14;94574.38;5069088;28;20084;-48
2022/05/26 12:17:26;;;;;;;2.33;0.70;;;;;;;24.91;29.60;94579.81;5068404;28;20500;-57
2022/05/26 12:19:53;;;;;;;2.17;0.80;;;;;;;24.85;29.89;94575.38;5068969;28;20113;-52
2022/05/26 12:22:24;;;;;;;2.53;1.10;;;;;;;24.97;29.76;94579.88;5069212;28;20065;-49
2022/05/26 12:24:57;;;;;;;2.47;0.90;;;;;;;23.60;31.05;94581.28;5083950;28;20381;-51
2022/05/26 12:27:49;;;;;;;2.65;0.90;;;;;;;23.67;32.12;94582.94;5089820;28;20054;-49
2022/05/26 12:30:44;;;;;;;1.92;0.70;;;;;;;23.42;31.74;94576.69;5087521;28;20050;-53
2022/05/26 12:33:20;;;;;;;2.67;0.80;;;;;;;23.96;30.39;94575.75;5089056;28;20052;-51
2022/05/26 12:36:24;;;;;;;2.70;0.70;;;;;;;23.55;31.54;94584.78;5088954;28;20040;-54
2022/05/26 12:39:00;;;;;;;2.25;0.80;;;;;;;23.82;31.67;94575.28;5088849;28;20060;-53
2022/05/26 12:41:56;;;;;;;2.85;0.80;;;;;;;25.05;30.28;94580.97;5088434;28;20040;-53
2022/05/26 12:45:01;;;;;;;2.15;0.90;;;;;;;23.47;32.35;94570.41;5088250;28;21827;-53